createdAt,value
2022-08-17T00:01:01.710Z,18.13
2022-08-17T00:03:39.112Z,18.14
2022-08-17T00:06:19.785Z,18.09
2022-08-17T00:08:57.987Z,18.05
2022-08-17T00:11:37.147Z,18.02
2022-08-17T00:14:13.658Z,17.98
2022-08-17T00:16:56.452Z,17.96
2022-08-17T00:19:32.633Z,17.90
2022-08-17T00:22:31.814Z,17.88
2022-08-17T00:25:02.001Z,17.89
2022-08-17T00:27:35.663Z,17.86
2022-08-17T00:30:13.080Z,17.81
2022-08-17T00:33:23.055Z,17.80
2022-08-17T00:35:43.386Z,17.81
2022-08-17T00:38:17.225Z,17.64
2022-08-17T00:40:56.001Z,17.59
2022-08-17T00:43:37.818Z,17.51
2022-08-17T00:46:15.969Z,17.48
2022-08-17T00:48:49.990Z,17.48
2022-08-17T00:51:32.266Z,17.51
2022-08-17T00:54:11.851Z,17.55
2022-08-17T00:56:51.211Z,17.54
2022-08-17T00:59:30.900Z,17.49
2022-08-17T01:02:06.292Z,17.45
2022-08-17T01:04:40.483Z,17.41
2022-08-17T01:07:14.884Z,17.37
2022-08-17T01:09:48.541Z,17.39
2022-08-17T01:12:23.523Z,17.44
2022-08-17T01:14:56.681Z,17.46
2022-08-17T01:17:29.846Z,17.48
2022-08-17T01:20:03.664Z,17.49
2022-08-17T01:22:38.239Z,17.50
2022-08-17T01:25:13.272Z,17.54
2022-08-17T01:27:47.091Z,17.51
2022-08-17T01:30:57.921Z,17.51
2022-08-17T01:33:13.471Z,17.48
2022-08-17T01:35:46.579Z,17.49
2022-08-17T01:38:27.235Z,17.47
2022-08-17T01:41:04.996Z,17.48
2022-08-17T01:43:44.042Z,17.43
2022-08-17T01:46:24.692Z,17.40
2022-08-17T01:48:58.610Z,17.40
2022-08-17T01:51:33.658Z,17.37
2022-08-17T01:54:12.939Z,17.35
2022-08-17T01:56:51.711Z,17.30
2022-08-17T01:59:24.922Z,17.27
2022-08-17T02:01:58.285Z,17.20
2022-08-17T02:04:31.966Z,17.19
2022-08-17T02:07:05.241Z,17.18
2022-08-17T02:09:39.709Z,17.13
2022-08-17T02:12:39.206Z,17.10
2022-08-17T02:15:12.434Z,17.03
2022-08-17T02:17:45.785Z,17.02
2022-08-17T02:20:42.359Z,16.99
2022-08-17T02:23:14.458Z,16.95
2022-08-17T02:25:49.576Z,16.97
2022-08-17T02:28:22.700Z,16.95
2022-08-17T02:31:02.002Z,16.94
2022-08-17T02:33:42.756Z,16.87
2022-08-17T02:36:16.724Z,16.88
2022-08-17T02:38:49.959Z,16.91
2022-08-17T02:41:24.371Z,16.96
2022-08-17T02:43:57.470Z,16.90
2022-08-17T02:46:32.098Z,16.87
2022-08-17T02:49:06.379Z,16.78
2022-08-17T02:51:39.496Z,16.75
2022-08-17T02:54:41.221Z,16.77
2022-08-17T02:57:07.310Z,16.70
2022-08-17T02:59:46.798Z,16.69
2022-08-17T03:02:22.023Z,16.65
2022-08-17T03:04:55.166Z,16.64
2022-08-17T03:07:28.292Z,16.62
2022-08-17T03:10:01.508Z,16.59
2022-08-17T03:12:39.595Z,16.50
2022-08-17T03:15:17.489Z,16.49
2022-08-17T03:17:52.070Z,16.46
2022-08-17T03:20:29.550Z,16.50
2022-08-17T03:23:03.041Z,16.43
2022-08-17T03:25:41.103Z,16.31
2022-08-17T03:28:18.146Z,16.34
2022-08-17T03:30:52.143Z,16.31
2022-08-17T03:33:25.313Z,16.27
2022-08-17T03:35:59.460Z,16.27
2022-08-17T03:38:38.986Z,16.33
2022-08-17T03:41:13.879Z,16.28
2022-08-17T03:43:48.379Z,16.25
2022-08-17T03:46:38.844Z,16.17
2022-08-17T03:49:29.527Z,16.28
2022-08-17T03:52:28.572Z,16.15
2022-08-17T03:55:36.136Z,16.21
2022-08-17T03:58:10.210Z,16.18
2022-08-17T04:00:46.243Z,16.18
2022-08-17T04:03:19.700Z,16.13
2022-08-17T04:05:52.769Z,16.04
2022-08-17T04:08:25.895Z,16.10
2022-08-17T04:11:00.605Z,16.08
2022-08-17T04:13:33.698Z,16.10
2022-08-17T04:16:08.633Z,16.12
2022-08-17T04:18:41.762Z,16.02
2022-08-17T04:21:15.022Z,16.01
2022-08-17T04:23:48.565Z,16.03
2022-08-17T04:26:52.847Z,16.04
2022-08-17T04:29:16.767Z,16.03
2022-08-17T04:31:51.969Z,16.06
2022-08-17T04:34:25.142Z,16.11
2022-08-17T04:36:58.250Z,16.12
2022-08-17T04:39:33.804Z,16.14
2022-08-17T04:42:17.037Z,16.11
2022-08-17T04:44:50.207Z,16.07
2022-08-17T04:47:24.699Z,15.99
2022-08-17T04:49:57.934Z,15.96
2022-08-17T04:52:43.523Z,15.97
2022-08-17T04:55:16.949Z,16.04
2022-08-17T04:57:50.063Z,15.96
2022-08-17T05:00:25.760Z,15.98
2022-08-17T05:03:00.362Z,15.99
2022-08-17T05:05:37.176Z,16.13
2022-08-17T05:08:10.901Z,16.17
2022-08-17T05:10:45.316Z,16.09
2022-08-17T05:13:22.698Z,16.07
2022-08-17T05:15:59.403Z,16.12
2022-08-17T05:18:34.224Z,16.26
2022-08-17T05:21:07.929Z,16.37
2022-08-17T05:23:43.329Z,16.47
2022-08-17T05:26:26.705Z,16.73
2022-08-17T05:29:02.801Z,17.10
2022-08-17T05:31:36.192Z,17.67
2022-08-17T05:34:11.520Z,18.38
2022-08-17T05:36:45.180Z,19.13
2022-08-17T05:39:18.309Z,19.61
2022-08-17T05:41:51.436Z,19.91
2022-08-17T05:44:24.601Z,20.06
2022-08-17T05:47:00.836Z,19.87
2022-08-17T05:49:35.297Z,19.98
2022-08-17T05:52:23.548Z,20.52
2022-08-17T05:55:14.199Z,20.93
2022-08-17T05:58:01.080Z,21.50
2022-08-17T06:00:42.309Z,21.69
2022-08-17T06:03:29.683Z,21.72
2022-08-17T06:06:31.281Z,22.26
2022-08-17T06:09:33.921Z,22.87
2022-08-17T06:12:27.642Z,22.78
2022-08-17T06:15:16.792Z,22.92
2022-08-17T06:17:53.912Z,23.06
2022-08-17T06:20:31.259Z,23.45
2022-08-17T06:23:12.067Z,23.66
2022-08-17T06:25:49.575Z,24.25
2022-08-17T06:28:32.314Z,24.56
2022-08-17T06:31:14.049Z,25.04
2022-08-17T06:33:47.547Z,25.57
2022-08-17T06:36:42.398Z,25.95
2022-08-17T06:39:32.466Z,26.44
2022-08-17T06:43:02.206Z,26.20
2022-08-17T06:45:16.679Z,26.11
2022-08-17T06:48:00.482Z,26.32
2022-08-17T06:50:38.393Z,26.60
2022-08-17T06:53:22.221Z,26.97
2022-08-17T06:56:02.733Z,27.29
2022-08-17T06:58:38.800Z,27.57
2022-08-17T07:01:18.536Z,27.64
2022-08-17T07:03:57.390Z,27.59
2022-08-17T07:06:38.217Z,27.66
2022-08-17T07:09:20.062Z,27.71
2022-08-17T07:11:58.113Z,27.97
2022-08-17T07:14:37.619Z,28.07
2022-08-17T07:17:13.959Z,28.00
2022-08-17T07:19:50.639Z,28.36
2022-08-17T07:22:58.138Z,28.56
2022-08-17T07:25:31.334Z,28.57
2022-08-17T07:28:07.843Z,28.53
2022-08-17T07:30:54.467Z,28.67
2022-08-17T07:33:36.777Z,29.00
2022-08-17T07:36:30.015Z,29.36
2022-08-17T07:39:05.119Z,29.45
2022-08-17T07:41:58.650Z,29.40
2022-08-17T07:44:48.271Z,29.74
2022-08-17T07:47:40.594Z,29.53
2022-08-17T07:50:28.871Z,29.70
2022-08-17T07:53:18.456Z,29.59
2022-08-17T07:55:53.273Z,29.80
2022-08-17T07:58:26.505Z,30.16
2022-08-17T08:01:12.384Z,30.49
2022-08-17T08:03:51.818Z,30.34
2022-08-17T08:06:27.342Z,30.42
2022-08-17T08:09:01.820Z,30.33
2022-08-17T08:11:40.183Z,30.35
2022-08-17T08:14:29.528Z,30.41
2022-08-17T08:17:09.397Z,30.55
2022-08-17T08:19:42.726Z,30.61
2022-08-17T08:22:26.216Z,30.64
2022-08-17T08:25:15.254Z,30.74
2022-08-17T08:28:03.673Z,30.77
2022-08-17T08:30:44.556Z,30.88
2022-08-17T08:33:42.757Z,31.05
2022-08-17T08:37:02.142Z,31.09
2022-08-17T08:39:45.243Z,30.95
2022-08-17T08:42:27.898Z,31.28
2022-08-17T08:45:13.664Z,31.12
2022-08-17T08:48:12.724Z,31.18
2022-08-17T08:51:06.228Z,31.03
2022-08-17T08:53:59.851Z,31.06
2022-08-17T08:56:39.051Z,31.20
2022-08-17T08:59:22.670Z,31.30
2022-08-17T09:02:06.524Z,31.10
2022-08-17T09:05:18.051Z,30.74
2022-08-17T09:08:00.983Z,30.55
2022-08-17T09:10:45.266Z,30.61
2022-08-17T09:13:30.020Z,30.73
2022-08-17T09:16:11.511Z,30.66
2022-08-17T09:19:00.665Z,30.83
2022-08-17T09:21:47.710Z,30.73
2022-08-17T09:24:30.152Z,30.74
2022-08-17T09:27:10.080Z,30.79
2022-08-17T09:29:53.085Z,30.56
2022-08-17T09:32:39.009Z,30.37
2022-08-17T09:35:19.389Z,30.59
2022-08-17T09:38:06.653Z,30.36
2022-08-17T09:40:50.156Z,30.15
2022-08-17T09:43:35.308Z,30.21
2022-08-17T09:46:16.945Z,30.00
2022-08-17T09:48:57.984Z,30.12
2022-08-17T09:51:36.893Z,29.92
2022-08-17T09:54:38.154Z,29.72
2022-08-17T09:57:30.820Z,29.51
2022-08-17T10:00:17.269Z,29.47
2022-08-17T10:03:08.374Z,29.42
2022-08-17T10:05:47.910Z,29.19
2022-08-17T10:08:34.733Z,29.00
2022-08-17T10:11:24.630Z,29.15
2022-08-17T10:14:36.406Z,28.97
2022-08-17T10:17:18.837Z,29.13
2022-08-17T10:20:01.671Z,29.10
2022-08-17T10:23:00.705Z,29.42
2022-08-17T10:25:56.105Z,29.33
2022-08-17T10:28:39.343Z,29.21
2022-08-17T10:31:40.085Z,29.24
2022-08-17T10:34:41.455Z,29.13
2022-08-17T10:38:05.604Z,28.98
2022-08-17T10:40:47.739Z,29.10
2022-08-17T10:43:34.532Z,28.84
2022-08-17T10:46:30.418Z,28.64
2022-08-17T10:49:34.951Z,28.64
2022-08-17T10:52:49.966Z,28.32
2022-08-17T10:55:25.760Z,28.10
2022-08-17T10:58:21.048Z,28.04
2022-08-17T11:00:59.913Z,27.95
2022-08-17T11:03:33.834Z,27.75
2022-08-17T11:06:18.173Z,27.60
2022-08-17T11:09:27.576Z,27.50
2022-08-17T11:12:29.245Z,27.22
2022-08-17T11:15:19.614Z,27.15
2022-08-17T11:18:25.497Z,26.24
2022-08-17T11:21:56.568Z,25.05
2022-08-17T11:24:35.905Z,24.42
2022-08-17T11:27:24.853Z,23.88
2022-08-17T11:30:02.577Z,23.56
2022-08-17T11:32:47.492Z,23.33
2022-08-17T11:35:39.899Z,23.20
2022-08-17T11:38:28.450Z,23.26
2022-08-17T11:41:20.697Z,23.35
2022-08-17T11:44:11.497Z,23.42
2022-08-17T11:47:18.974Z,23.60
2022-08-17T11:50:55.615Z,23.71
2022-08-17T11:58:00.200Z,24.06
2022-08-17T12:00:56.414Z,24.21
2022-08-17T12:03:55.620Z,24.28
2022-08-17T12:06:42.893Z,24.38
2022-08-17T12:09:20.517Z,24.53
2022-08-17T12:12:12.361Z,24.72
2022-08-17T12:15:11.355Z,24.88
2022-08-17T12:17:53.915Z,24.99
2022-08-17T12:20:33.381Z,25.03
2022-08-17T12:23:13.547Z,25.06
2022-08-17T12:25:55.299Z,25.18
2022-08-17T12:28:32.769Z,25.25
2022-08-17T12:31:14.664Z,25.33
2022-08-17T12:33:51.694Z,25.55
2022-08-17T12:36:28.567Z,25.52
2022-08-17T12:39:14.214Z,25.45
2022-08-17T12:41:51.545Z,25.45
2022-08-17T12:44:29.138Z,25.60
2022-08-17T12:47:22.416Z,25.67
2022-08-17T12:50:08.201Z,25.82
2022-08-17T12:53:02.801Z,25.93
2022-08-17T12:55:38.846Z,25.99
2022-08-17T12:58:18.179Z,25.99
2022-08-17T13:00:57.005Z,26.11
2022-08-17T13:03:42.154Z,26.15
2022-08-17T13:06:28.815Z,26.17
2022-08-17T13:09:12.076Z,26.23
2022-08-17T13:11:51.421Z,26.29
2022-08-17T13:14:24.599Z,26.37
2022-08-17T13:17:01.002Z,26.73
2022-08-17T13:19:40.752Z,26.90
2022-08-17T13:22:14.374Z,27.00
2022-08-17T13:24:54.440Z,27.08
2022-08-17T13:27:29.832Z,27.29
2022-08-17T13:30:08.777Z,27.38
2022-08-17T13:32:45.620Z,27.68
2022-08-17T13:35:44.254Z,27.77
2022-08-17T13:38:45.619Z,27.77
2022-08-17T13:41:33.563Z,27.83
2022-08-17T13:44:31.789Z,27.88
2022-08-17T13:47:15.654Z,27.94
2022-08-17T13:49:49.527Z,28.16
2022-08-17T13:52:39.897Z,28.35
2022-08-17T13:55:20.944Z,28.35
2022-08-17T13:58:07.227Z,28.26
2022-08-17T14:00:40.801Z,28.23
2022-08-17T14:03:15.253Z,28.21
2022-08-17T14:05:50.087Z,28.29
2022-08-17T14:08:26.402Z,28.37
2022-08-17T14:10:59.820Z,28.51
2022-08-17T14:13:32.997Z,28.68
2022-08-17T14:16:06.572Z,28.92
2022-08-17T14:18:56.701Z,29.08
2022-08-17T14:21:30.335Z,29.05
2022-08-17T14:24:05.458Z,29.10
2022-08-17T14:26:38.574Z,29.07
2022-08-17T14:29:14.873Z,28.86
2022-08-17T14:31:54.268Z,28.73
2022-08-17T14:34:27.958Z,28.94
2022-08-17T14:37:01.040Z,28.79
2022-08-17T14:39:35.490Z,28.84
2022-08-17T14:42:11.408Z,28.85
2022-08-17T14:44:44.514Z,28.89
2022-08-17T14:47:17.653Z,28.88
2022-08-17T14:49:50.855Z,28.96
2022-08-17T14:52:24.196Z,29.06
2022-08-17T14:54:58.883Z,29.09
2022-08-17T14:57:34.182Z,29.21
2022-08-17T15:00:10.003Z,29.28
2022-08-17T15:02:50.928Z,29.13
2022-08-17T15:05:27.109Z,29.15
2022-08-17T15:08:00.983Z,29.15
2022-08-17T15:10:36.147Z,29.14
2022-08-17T15:13:19.155Z,29.19
2022-08-17T15:15:52.947Z,29.15
2022-08-17T15:18:26.026Z,29.21
2022-08-17T15:20:59.192Z,29.24
2022-08-17T15:23:32.926Z,29.19
2022-08-17T15:26:08.363Z,29.19
2022-08-17T15:28:41.428Z,29.22
2022-08-17T15:31:14.859Z,29.26
2022-08-17T15:33:47.930Z,29.24
2022-08-17T15:36:21.082Z,29.23
2022-08-17T15:38:54.184Z,29.35
2022-08-17T15:41:29.414Z,29.50
2022-08-17T15:44:02.861Z,29.41
2022-08-17T15:46:35.925Z,29.25
2022-08-17T15:49:09.782Z,29.24
2022-08-17T15:51:42.860Z,29.23
2022-08-17T15:54:18.871Z,29.25
2022-08-17T15:56:57.023Z,29.32
2022-08-17T15:59:30.955Z,29.23
2022-08-17T16:03:14.331Z,29.32
2022-08-17T16:04:57.994Z,29.40
2022-08-17T16:07:31.605Z,29.32
2022-08-17T16:10:06.588Z,29.26
2022-08-17T16:12:41.886Z,29.19
2022-08-17T16:15:16.239Z,29.29
2022-08-17T16:17:49.359Z,29.51
2022-08-17T16:20:22.596Z,29.23
2022-08-17T16:22:56.165Z,28.98
2022-08-17T16:25:52.573Z,28.87
2022-08-17T16:28:35.629Z,28.73
2022-08-17T16:31:09.749Z,28.72
2022-08-17T16:33:43.440Z,28.64
2022-08-17T16:36:37.414Z,28.49
2022-08-17T16:39:10.479Z,28.43
2022-08-17T16:41:47.040Z,28.40
2022-08-17T16:44:22.944Z,28.37
2022-08-17T16:46:56.033Z,28.37
2022-08-17T16:49:37.105Z,28.37
2022-08-17T16:52:11.477Z,28.35
2022-08-17T16:54:46.722Z,28.34
2022-08-17T16:57:20.324Z,28.28
2022-08-17T16:59:55.157Z,28.24
2022-08-17T17:02:31.549Z,28.21
2022-08-17T17:05:24.448Z,28.23
2022-08-17T17:08:07.664Z,28.16
2022-08-17T17:10:46.157Z,28.10
2022-08-17T17:13:26.885Z,28.03
2022-08-17T17:16:15.609Z,27.99
2022-08-17T17:19:06.933Z,27.91
2022-08-17T17:21:48.009Z,27.84
2022-08-17T17:24:30.633Z,27.74
2022-08-17T17:27:20.937Z,27.64
2022-08-17T17:30:07.944Z,27.58
2022-08-17T17:32:50.333Z,27.49
2022-08-17T17:35:27.546Z,27.39
2022-08-17T17:38:07.385Z,27.25
2022-08-17T17:40:44.342Z,27.14
2022-08-17T17:43:38.508Z,27.04
2022-08-17T17:46:28.219Z,26.90
2022-08-17T17:49:03.629Z,26.77
2022-08-17T17:52:10.280Z,26.66
2022-08-17T17:55:00.033Z,26.52
2022-08-17T17:57:50.792Z,26.42
2022-08-17T18:00:26.227Z,26.34
2022-08-17T18:03:21.894Z,26.23
2022-08-17T18:06:27.030Z,26.11
2022-08-17T18:09:11.813Z,26.00
2022-08-17T18:12:06.510Z,25.91
2022-08-17T18:15:00.790Z,25.79
2022-08-17T18:17:34.088Z,25.71
2022-08-17T18:20:08.068Z,25.64
2022-08-17T18:22:42.477Z,25.63
2022-08-17T18:25:44.395Z,25.51
2022-08-17T18:28:26.846Z,25.43
2022-08-17T18:31:15.638Z,25.34
2022-08-17T18:33:52.373Z,25.25
2022-08-17T18:36:31.471Z,25.15
2022-08-17T18:39:17.012Z,25.01
2022-08-17T18:41:53.372Z,24.98
2022-08-17T18:44:30.278Z,24.90
2022-08-17T18:47:13.907Z,24.80
2022-08-17T18:49:49.893Z,24.66
2022-08-17T18:52:26.121Z,24.62
2022-08-17T18:55:09.649Z,24.64
2022-08-17T18:57:46.780Z,24.52
2022-08-17T19:00:35.635Z,24.47
2022-08-17T19:03:24.653Z,24.34
2022-08-17T19:06:18.839Z,24.24
2022-08-17T19:08:51.967Z,24.16
2022-08-17T19:11:31.685Z,24.14
2022-08-17T19:14:10.721Z,24.06
2022-08-17T19:16:51.414Z,24.00
2022-08-17T19:19:32.958Z,23.96
2022-08-17T19:22:14.605Z,23.92
2022-08-17T19:25:12.447Z,23.90
2022-08-17T19:28:01.060Z,23.86
2022-08-17T19:30:37.074Z,23.83
2022-08-17T19:33:15.174Z,23.80
2022-08-17T19:36:01.915Z,23.73
2022-08-17T19:38:46.848Z,23.67
2022-08-17T19:41:28.196Z,23.57
2022-08-17T19:44:19.761Z,23.49
2022-08-17T19:47:06.178Z,23.41
2022-08-17T19:49:53.960Z,23.37
2022-08-17T19:52:44.315Z,23.34
2022-08-17T19:55:31.529Z,23.26
2022-08-17T19:58:17.739Z,23.20
2022-08-17T20:00:53.869Z,23.14
2022-08-17T20:03:34.098Z,23.11
2022-08-17T20:06:13.883Z,23.09
2022-08-17T20:08:59.633Z,23.04
2022-08-17T20:11:38.846Z,23.01
2022-08-17T20:14:15.997Z,22.96
2022-08-17T20:16:51.104Z,22.86
2022-08-17T20:19:29.197Z,22.79
2022-08-17T20:22:11.132Z,22.73
2022-08-17T20:24:54.509Z,22.75
2022-08-17T20:27:31.474Z,22.68
2022-08-17T20:30:11.712Z,22.58
2022-08-17T20:32:57.965Z,22.46
2022-08-17T20:35:33.729Z,22.45
2022-08-17T20:38:12.797Z,22.39
2022-08-17T20:41:12.392Z,22.37
2022-08-17T20:44:02.662Z,22.32
2022-08-17T20:46:58.236Z,22.30
2022-08-17T20:49:50.761Z,22.27
2022-08-17T20:52:56.355Z,22.24
2022-08-17T20:55:55.568Z,22.17
2022-08-17T20:58:48.698Z,22.09
2022-08-17T21:01:39.481Z,22.04
2022-08-17T21:04:47.389Z,22.06
2022-08-17T21:07:29.118Z,22.07
2022-08-17T21:10:15.366Z,22.01
2022-08-17T21:12:55.212Z,22.04
2022-08-17T21:15:34.968Z,22.06
2022-08-17T21:18:16.844Z,22.04
2022-08-17T21:21:17.839Z,22.07
2022-08-17T21:24:09.247Z,22.16
2022-08-17T21:26:57.222Z,22.03
2022-08-17T21:29:33.995Z,21.99
2022-08-17T21:32:23.692Z,22.00
2022-08-17T21:35:31.037Z,21.79
2022-08-17T21:38:05.933Z,21.80
2022-08-17T21:40:39.624Z,21.85
2022-08-17T21:43:27.111Z,21.88
2022-08-17T21:46:06.795Z,21.91
2022-08-17T21:48:48.069Z,21.90
2022-08-17T21:51:27.425Z,21.91
2022-08-17T21:54:06.039Z,22.02
2022-08-17T21:56:47.205Z,21.96
2022-08-17T21:59:27.426Z,22.13
2022-08-17T22:02:03.207Z,22.14
2022-08-17T22:04:39.608Z,22.51
2022-08-17T22:07:14.831Z,22.68
2022-08-17T22:09:51.013Z,22.77
2022-08-17T22:12:25.119Z,22.90
2022-08-17T22:15:02.154Z,23.10
2022-08-17T22:17:40.149Z,23.11
2022-08-17T22:20:17.706Z,22.98
2022-08-17T22:23:31.316Z,22.87
2022-08-17T22:26:12.751Z,22.77
2022-08-17T22:28:50.257Z,22.63
2022-08-17T22:31:26.032Z,22.44
2022-08-17T22:34:14.478Z,22.28
2022-08-17T22:36:47.568Z,22.23
2022-08-17T22:39:44.802Z,22.13
2022-08-17T22:42:19.367Z,21.98
2022-08-17T22:44:54.400Z,21.92
2022-08-17T22:47:32.861Z,21.74
2022-08-17T22:50:18.706Z,21.58
2022-08-17T22:53:17.864Z,21.44
2022-08-17T22:56:13.435Z,21.46
2022-08-17T22:59:13.276Z,21.22
2022-08-17T23:02:11.634Z,20.92
2022-08-17T23:04:48.578Z,20.78
2022-08-17T23:07:22.643Z,20.68
2022-08-17T23:09:55.765Z,20.65
2022-08-17T23:12:29.198Z,20.50
2022-08-17T23:15:04.160Z,20.25
2022-08-17T23:17:38.199Z,20.12
2022-08-17T23:20:15.130Z,20.01
2022-08-17T23:22:51.736Z,19.95
2022-08-17T23:25:29.546Z,19.91
2022-08-17T23:28:05.851Z,19.91
2022-08-17T23:30:43.926Z,19.84
2022-08-17T23:33:22.384Z,19.76
2022-08-17T23:35:55.460Z,19.75
2022-08-17T23:38:29.947Z,19.74
2022-08-17T23:41:09.618Z,19.62
2022-08-17T23:43:45.866Z,19.53
2022-08-17T23:46:25.042Z,19.55
2022-08-17T23:48:58.122Z,19.56
2022-08-17T23:51:38.252Z,19.56
2022-08-17T23:54:20.478Z,19.54
2022-08-17T23:56:53.827Z,19.57
2022-08-17T23:59:27.478Z,19.56
